createdAt,value
2019-03-23T00:01:50.667Z,93.94
2019-03-23T00:04:20.415Z,94.24
2019-03-23T00:06:50.127Z,94.45
2019-03-23T00:09:19.887Z,94.58
2019-03-23T00:11:49.607Z,94.34
2019-03-23T00:14:19.329Z,94.67
2019-03-23T00:16:49.121Z,94.81
2019-03-23T00:19:18.872Z,94.75
2019-03-23T00:21:48.599Z,94.88
2019-03-23T00:24:18.361Z,94.84
2019-03-23T00:26:48.081Z,94.94
2019-03-23T00:29:17.862Z,94.86
2019-03-23T00:31:47.613Z,94.92
2019-03-23T00:34:17.390Z,94.94
2019-03-23T00:36:47.108Z,94.96
2019-03-23T00:39:16.875Z,94.89
2019-03-23T00:41:46.614Z,94.78
2019-03-23T00:44:16.368Z,94.65
2019-03-23T00:46:46.103Z,94.30
2019-03-23T00:49:15.827Z,93.69
2019-03-23T00:55:13.807Z,93.84
2019-03-23T00:57:43.606Z,94.13
2019-03-23T01:00:14.307Z,94.49
2019-03-23T01:02:44.546Z,94.44
2019-03-23T01:05:14.360Z,94.72
2019-03-23T01:07:44.023Z,94.79
2019-03-23T01:10:13.902Z,94.92
2019-03-23T01:12:43.604Z,95.16
2019-03-23T01:15:14.026Z,95.32
2019-03-23T01:17:43.746Z,95.68
2019-03-23T01:20:14.128Z,95.81
2019-03-23T01:22:43.904Z,95.97
2019-03-23T01:25:13.800Z,96.09
2019-03-23T01:27:43.514Z,96.43
2019-03-23T01:30:14.686Z,96.59
2019-03-23T01:32:44.474Z,96.77
2019-03-23T01:35:14.399Z,96.90
2019-03-23T01:37:44.130Z,96.79
2019-03-23T01:40:14.022Z,96.88
2019-03-23T01:42:43.885Z,96.88
2019-03-23T01:45:14.938Z,96.80
2019-03-23T01:47:44.832Z,96.42
2019-03-23T01:50:15.422Z,96.17
2019-03-23T01:52:45.292Z,96.05
2019-03-23T01:55:15.154Z,95.98
2019-03-23T01:57:44.877Z,95.92
2019-03-23T02:00:15.236Z,95.99
2019-03-23T02:02:44.998Z,95.97
2019-03-23T02:05:15.078Z,95.63
2019-03-23T02:07:44.849Z,95.25
2019-03-23T02:10:14.739Z,95.01
2019-03-23T02:12:44.481Z,94.77
2019-03-23T02:15:14.755Z,94.67
2019-03-23T02:17:44.515Z,94.65
2019-03-23T02:20:14.898Z,94.90
2019-03-23T02:22:44.704Z,94.88
2019-03-23T02:25:14.512Z,94.84
2019-03-23T02:27:44.256Z,94.19
2019-03-23T02:30:14.472Z,93.97
2019-03-23T02:32:44.189Z,93.90
2019-03-23T02:35:14.074Z,94.20
2019-03-23T02:37:43.883Z,94.32
2019-03-23T02:40:13.695Z,94.17
2019-03-23T02:42:43.448Z,94.21
2019-03-23T02:45:13.900Z,94.13
2019-03-23T02:47:46.632Z,93.98
2019-03-23T02:50:16.399Z,93.37
2019-03-23T02:52:46.164Z,93.31
2019-03-23T02:55:15.908Z,92.72
2019-03-23T02:57:45.639Z,92.92
2019-03-23T03:00:17.553Z,92.71
2019-03-23T03:02:47.310Z,92.62
2019-03-23T03:05:17.115Z,92.57
2019-03-23T03:07:46.859Z,92.62
2019-03-23T03:10:37.876Z,92.48
2019-03-23T03:13:07.713Z,92.87
2019-03-23T03:15:37.531Z,92.68
2019-03-23T03:18:08.142Z,93.14
2019-03-23T03:20:37.885Z,93.19
2019-03-23T03:23:07.683Z,93.34
2019-03-23T03:25:37.430Z,93.39
2019-03-23T03:28:07.251Z,93.32
2019-03-23T03:30:37.001Z,93.18
2019-03-23T03:33:06.809Z,93.13
2019-03-23T03:35:36.537Z,92.86
2019-03-23T03:38:06.322Z,92.92
2019-03-23T03:40:36.253Z,93.00
2019-03-23T03:43:05.969Z,93.09
2019-03-23T03:45:35.821Z,93.06
2019-03-23T03:48:05.581Z,93.02
2019-03-23T03:50:35.291Z,93.09
2019-03-23T03:53:05.051Z,93.24
2019-03-23T03:55:34.778Z,93.38
2019-03-23T03:58:04.593Z,93.23
2019-03-23T04:00:34.312Z,93.35
2019-03-23T04:03:04.155Z,93.20
2019-03-23T04:05:33.935Z,93.16
2019-03-23T04:08:10.878Z,93.09
2019-03-23T04:10:35.155Z,92.89
2019-03-23T04:13:04.987Z,92.88
2019-03-23T04:15:34.907Z,92.93
2019-03-23T04:18:04.666Z,93.04
2019-03-23T04:20:34.406Z,93.03
2019-03-23T04:23:04.216Z,93.20
2019-03-23T04:25:34.029Z,93.30
2019-03-23T04:28:03.764Z,93.08
2019-03-23T04:30:33.491Z,93.06
2019-03-23T04:33:03.235Z,93.18
2019-03-23T04:35:32.985Z,93.03
2019-03-23T04:38:02.725Z,93.20
2019-03-23T04:40:32.503Z,93.32
2019-03-23T04:43:02.264Z,93.43
2019-03-23T04:45:32.007Z,93.09
2019-03-23T04:48:01.763Z,93.05
2019-03-23T04:50:31.479Z,93.16
2019-03-23T04:53:01.247Z,93.23
2019-03-23T04:55:31.036Z,93.16
2019-03-23T04:58:00.786Z,92.96
2019-03-23T05:00:30.533Z,93.23
2019-03-23T05:03:00.288Z,93.34
2019-03-23T05:05:30.035Z,93.30
2019-03-23T05:07:59.789Z,93.31
2019-03-23T05:10:29.507Z,93.05
2019-03-23T05:12:59.264Z,93.24
2019-03-23T05:15:28.993Z,93.20
2019-03-23T05:17:58.722Z,93.24
2019-03-23T05:20:30.743Z,93.06
2019-03-23T05:23:00.594Z,93.14
2019-03-23T05:25:30.898Z,93.19
2019-03-23T05:28:00.639Z,93.04
2019-03-23T05:30:30.546Z,93.09
2019-03-23T05:33:00.271Z,92.97
2019-03-23T05:35:30.006Z,92.79
2019-03-23T05:37:59.821Z,92.92
2019-03-23T05:40:29.591Z,92.79
2019-03-23T05:42:59.307Z,92.72
2019-03-23T05:45:29.074Z,92.84
2019-03-23T05:47:58.790Z,92.77
2019-03-23T05:50:28.562Z,92.76
2019-03-23T05:52:58.269Z,92.90
2019-03-23T05:55:28.111Z,92.80
2019-03-23T05:57:57.827Z,92.56
2019-03-23T06:00:27.605Z,92.49
2019-03-23T06:02:57.348Z,92.38
2019-03-23T06:05:27.098Z,92.43
2019-03-23T06:07:56.839Z,92.09
2019-03-23T06:10:26.639Z,92.21
2019-03-23T06:12:56.386Z,91.97
2019-03-23T06:15:26.147Z,92.10
2019-03-23T06:17:55.882Z,92.26
2019-03-23T06:20:25.621Z,92.19
2019-03-23T06:22:55.355Z,92.31
2019-03-23T06:25:25.163Z,92.29
2019-03-23T06:27:56.245Z,92.21
2019-03-23T06:30:26.159Z,92.35
2019-03-23T06:32:55.864Z,92.15
2019-03-23T06:35:25.615Z,92.18
2019-03-23T06:37:55.332Z,92.33
2019-03-23T06:40:25.129Z,92.27
2019-03-23T06:42:59.772Z,92.31
2019-03-23T06:45:26.360Z,92.22
2019-03-23T06:47:56.099Z,92.20
2019-03-23T06:50:25.943Z,92.37
2019-03-23T06:52:55.715Z,91.93
2019-03-23T06:55:27.116Z,92.17
2019-03-23T06:58:01.510Z,91.96
2019-03-23T07:00:36.180Z,92.13
2019-03-23T07:03:05.990Z,92.03
2019-03-23T07:05:37.403Z,91.89
2019-03-23T07:08:07.126Z,91.58
2019-03-23T07:10:36.865Z,91.50
2019-03-23T07:13:06.708Z,91.54
2019-03-23T07:15:36.440Z,91.16
2019-03-23T07:18:10.475Z,90.86
2019-03-23T07:20:40.256Z,90.95
2019-03-23T07:23:10.067Z,90.65
2019-03-23T07:25:39.809Z,90.57
2019-03-23T07:28:09.512Z,90.51
2019-03-23T07:30:39.570Z,90.47
2019-03-23T07:33:09.364Z,90.35
2019-03-23T07:35:39.105Z,90.83
2019-03-23T07:38:08.822Z,90.60
2019-03-23T07:40:38.632Z,90.45
2019-03-23T07:43:08.314Z,90.35
2019-03-23T07:45:38.075Z,90.58
2019-03-23T07:48:07.791Z,90.69
2019-03-23T07:50:37.579Z,90.92
2019-03-23T07:53:07.373Z,90.89
2019-03-23T07:55:37.140Z,91.02
2019-03-23T07:58:06.880Z,90.92
2019-03-23T08:00:36.662Z,90.89
2019-03-23T08:03:06.405Z,90.98
2019-03-23T08:05:36.154Z,91.00
2019-03-23T08:08:05.874Z,90.89
2019-03-23T08:10:35.639Z,90.74
2019-03-23T08:13:05.448Z,90.66
2019-03-23T08:15:35.212Z,90.62
2019-03-23T08:18:05.005Z,90.87
2019-03-23T08:20:34.762Z,90.82
2019-03-23T08:23:04.627Z,90.97
2019-03-23T08:25:34.919Z,90.98
2019-03-23T08:28:04.748Z,90.67
2019-03-23T08:30:34.481Z,91.06
2019-03-23T08:33:04.336Z,91.07
2019-03-23T08:35:34.126Z,91.16
2019-03-23T08:38:03.895Z,90.87
2019-03-23T08:40:35.691Z,91.05
2019-03-23T08:43:05.038Z,90.86
2019-03-23T08:45:34.795Z,90.92
2019-03-23T08:48:04.596Z,90.49
2019-03-23T08:50:34.422Z,90.28
2019-03-23T08:53:04.265Z,90.10
2019-03-23T08:55:34.095Z,89.75
2019-03-23T08:58:05.357Z,89.21
2019-03-23T09:00:35.163Z,89.32
2019-03-23T09:03:05.007Z,89.36
2019-03-23T09:05:38.222Z,89.19
2019-03-23T09:08:08.004Z,88.63
2019-03-23T09:10:39.460Z,88.55
2019-03-23T09:13:09.264Z,88.39
2019-03-23T09:15:39.105Z,88.01
2019-03-23T09:18:08.841Z,87.73
2019-03-23T09:20:38.814Z,87.61
2019-03-23T09:23:08.571Z,87.32
2019-03-23T09:25:38.360Z,87.00
2019-03-23T09:28:08.108Z,87.16
2019-03-23T09:30:37.872Z,87.06
2019-03-23T09:33:07.672Z,87.20
2019-03-23T09:35:40.019Z,86.97
2019-03-23T09:38:08.930Z,86.29
2019-03-23T09:40:38.922Z,85.95
2019-03-23T09:43:08.654Z,85.45
2019-03-23T09:45:38.540Z,85.33
2019-03-23T09:48:08.305Z,84.25
2019-03-23T09:50:38.155Z,83.92
2019-03-23T09:53:07.872Z,84.60
2019-03-23T09:55:37.629Z,83.71
2019-03-23T09:58:07.380Z,84.04
2019-03-23T10:00:37.130Z,83.44
2019-03-23T10:03:06.984Z,83.88
2019-03-23T10:05:36.795Z,83.12
2019-03-23T10:08:06.507Z,81.91
2019-03-23T10:10:36.325Z,81.52
2019-03-23T10:13:06.055Z,80.15
2019-03-23T10:15:35.805Z,80.83
2019-03-23T10:18:05.575Z,80.48
2019-03-23T10:20:35.347Z,80.29
2019-03-23T10:23:05.142Z,79.15
2019-03-23T10:25:34.931Z,79.19
2019-03-23T10:28:04.817Z,78.71
2019-03-23T10:30:34.704Z,79.75
2019-03-23T10:33:04.546Z,79.03
2019-03-23T10:35:34.423Z,79.55
2019-03-23T10:38:04.245Z,79.40
2019-03-23T10:40:33.991Z,78.66
2019-03-23T10:43:03.740Z,78.11
2019-03-23T10:45:40.067Z,77.31
2019-03-23T10:48:14.805Z,77.50
2019-03-23T10:50:44.646Z,76.50
2019-03-23T10:53:22.805Z,77.57
2019-03-23T10:55:45.896Z,78.23
2019-03-23T10:58:15.666Z,78.43
2019-03-23T11:00:45.519Z,76.83
2019-03-23T11:03:15.287Z,76.93
2019-03-23T11:05:45.016Z,75.52
2019-03-23T11:08:14.724Z,75.92
2019-03-23T11:10:44.515Z,75.42
2019-03-23T11:13:14.287Z,74.63
2019-03-23T11:15:44.032Z,75.21
2019-03-23T11:18:13.781Z,75.89
2019-03-23T11:20:43.530Z,75.50
2019-03-23T11:23:13.287Z,73.88
2019-03-23T11:25:43.048Z,74.19
2019-03-23T11:28:12.754Z,73.87
2019-03-23T11:30:42.492Z,72.83
2019-03-23T11:33:20.324Z,72.09
2019-03-23T11:35:57.457Z,71.28
2019-03-23T11:38:21.574Z,71.92
2019-03-23T11:40:54.055Z,69.57
2019-03-23T11:43:23.007Z,69.68
2019-03-23T11:45:52.823Z,69.28
2019-03-23T11:48:22.553Z,69.82
2019-03-23T11:50:52.514Z,70.54
2019-03-23T11:53:22.253Z,69.12
2019-03-23T11:55:57.980Z,69.37
2019-03-23T11:58:29.374Z,69.96
2019-03-23T12:01:09.756Z,69.12
2019-03-23T12:03:43.005Z,69.88
2019-03-23T12:06:12.738Z,69.67
2019-03-23T12:08:45.731Z,68.79
2019-03-23T12:11:15.557Z,69.10
2019-03-23T12:13:45.343Z,68.65
2019-03-23T12:16:15.095Z,68.54
2019-03-23T12:18:44.811Z,67.49
2019-03-23T12:21:25.245Z,67.37
2019-03-23T12:23:54.992Z,65.08
2019-03-23T12:26:24.850Z,66.60
2019-03-23T12:28:54.611Z,63.13
2019-03-23T12:31:24.533Z,63.35
2019-03-23T12:33:56.997Z,61.71
2019-03-23T12:36:26.862Z,61.53
2019-03-23T12:38:56.552Z,57.11
2019-03-23T12:41:26.316Z,58.37
2019-03-23T12:43:56.136Z,59.01
2019-03-23T12:46:25.920Z,59.00
2019-03-23T12:48:55.758Z,57.57
2019-03-23T12:51:26.495Z,58.36
2019-03-23T12:54:10.319Z,56.46
2019-03-23T12:56:40.043Z,56.20
2019-03-23T12:59:09.823Z,56.07
2019-03-23T13:01:39.564Z,57.41
2019-03-23T13:04:09.374Z,55.82
2019-03-23T13:06:39.138Z,56.99
2019-03-23T13:09:08.967Z,56.70
2019-03-23T13:11:38.780Z,56.24
2019-03-23T13:14:12.154Z,56.59
2019-03-23T13:16:43.765Z,55.84
2019-03-23T13:19:13.571Z,56.42
2019-03-23T13:21:43.467Z,58.33
2019-03-23T13:24:13.231Z,58.83
2019-03-23T13:26:42.988Z,57.81
2019-03-23T13:29:12.722Z,58.34
2019-03-23T13:31:42.543Z,58.26
2019-03-23T13:34:12.286Z,56.88
2019-03-23T13:36:42.029Z,56.04
2019-03-23T13:39:11.759Z,56.99
2019-03-23T13:41:51.981Z,55.94
2019-03-23T13:44:21.724Z,57.76
2019-03-23T13:46:51.473Z,56.60
2019-03-23T13:49:21.247Z,55.69
2019-03-23T13:51:51.076Z,56.51
2019-03-23T13:54:20.807Z,56.65
2019-03-23T13:56:50.577Z,53.72
2019-03-23T13:59:20.318Z,53.85
2019-03-23T14:01:50.099Z,55.85
2019-03-23T14:04:19.825Z,56.18
2019-03-23T14:06:49.641Z,54.28
2019-03-23T14:09:19.323Z,56.72
2019-03-23T14:11:54.927Z,57.43
2019-03-23T14:14:20.563Z,55.87
2019-03-23T14:16:50.331Z,55.60
2019-03-23T14:19:20.093Z,54.64
2019-03-23T14:21:49.873Z,55.37
2019-03-23T14:24:19.550Z,55.31
2019-03-23T14:26:49.311Z,55.29
2019-03-23T14:29:19.035Z,56.04
2019-03-23T14:31:48.789Z,53.06
2019-03-23T14:34:18.523Z,50.00
2019-03-23T14:36:48.269Z,52.58
2019-03-23T14:39:18.041Z,53.86
2019-03-23T14:41:47.749Z,54.97
2019-03-23T14:44:17.495Z,54.94
2019-03-23T14:46:47.240Z,55.53
2019-03-23T14:49:16.990Z,55.99
2019-03-23T14:51:46.780Z,55.88
2019-03-23T14:54:16.505Z,56.16
2019-03-23T14:56:46.256Z,56.31
2019-03-23T14:59:15.967Z,57.35
2019-03-23T15:01:45.747Z,57.24
2019-03-23T15:04:15.473Z,57.10
2019-03-23T15:06:45.200Z,56.98
2019-03-23T15:09:14.911Z,58.28
2019-03-23T15:11:44.648Z,58.65
2019-03-23T15:14:14.380Z,58.18
2019-03-23T15:16:44.137Z,58.73
2019-03-23T15:19:15.563Z,58.94
2019-03-23T15:21:45.506Z,59.47
2019-03-23T15:24:15.304Z,60.36
2019-03-23T15:26:45.053Z,61.20
2019-03-23T15:29:14.759Z,61.95
2019-03-23T15:31:44.502Z,61.23
2019-03-23T15:34:14.255Z,57.79
2019-03-23T15:36:44.013Z,60.62
2019-03-23T15:39:13.742Z,59.55
2019-03-23T15:41:43.550Z,56.12
2019-03-23T15:44:13.258Z,54.22
2019-03-23T15:46:43.010Z,55.22
2019-03-23T15:49:12.726Z,57.10
2019-03-23T15:51:42.528Z,58.60
2019-03-23T15:54:12.229Z,57.36
2019-03-23T15:56:41.980Z,58.71
2019-03-23T15:59:11.732Z,60.05
2019-03-23T16:01:41.499Z,61.47
2019-03-23T16:04:11.222Z,61.54
2019-03-23T16:06:40.989Z,62.67
2019-03-23T16:09:10.725Z,62.13
2019-03-23T16:11:40.557Z,62.49
2019-03-23T16:14:10.307Z,62.75
2019-03-23T16:16:40.087Z,63.57
2019-03-23T16:19:09.835Z,63.95
2019-03-23T16:21:39.577Z,63.96
2019-03-23T16:24:09.337Z,63.40
2019-03-23T16:26:39.058Z,61.61
2019-03-23T16:29:09.746Z,63.59
2019-03-23T16:31:39.568Z,62.63
2019-03-23T16:34:09.309Z,62.44
2019-03-23T16:36:39.047Z,63.01
2019-03-23T16:39:08.816Z,63.42
2019-03-23T16:41:38.509Z,63.84
2019-03-23T16:44:08.240Z,62.94
2019-03-23T16:46:37.958Z,63.39
2019-03-23T16:49:07.673Z,63.30
2019-03-23T16:51:37.410Z,62.97
2019-03-23T16:54:07.191Z,62.78
2019-03-23T16:56:36.970Z,63.80
2019-03-23T16:59:06.711Z,63.37
2019-03-23T17:01:36.438Z,63.65
2019-03-23T17:04:06.198Z,63.60
2019-03-23T17:06:45.831Z,63.40
2019-03-23T17:09:07.454Z,63.65
2019-03-23T17:11:37.178Z,63.30
2019-03-23T17:14:06.987Z,64.80
2019-03-23T17:16:36.700Z,64.58
2019-03-23T17:19:06.460Z,63.40
2019-03-23T17:21:36.166Z,64.13
2019-03-23T17:24:05.876Z,64.25
2019-03-23T17:26:38.602Z,64.46
2019-03-23T17:29:08.367Z,65.39
2019-03-23T17:31:38.091Z,65.27
2019-03-23T17:34:07.821Z,66.27
2019-03-23T17:36:37.530Z,63.69
2019-03-23T17:39:07.502Z,65.22
2019-03-23T17:41:37.206Z,62.43
2019-03-23T17:44:11.897Z,61.82
2019-03-23T17:46:44.379Z,63.19
2019-03-23T17:49:22.479Z,61.60
2019-03-23T17:51:52.198Z,63.97
2019-03-23T17:54:23.597Z,62.91
2019-03-23T17:56:54.115Z,63.61
2019-03-23T17:59:25.748Z,64.49
2019-03-23T18:01:57.173Z,64.38
2019-03-23T18:04:31.490Z,64.76
2019-03-23T18:07:04.277Z,64.69
2019-03-23T18:09:34.017Z,65.50
2019-03-23T18:12:10.326Z,65.53
2019-03-23T18:14:40.064Z,66.05
2019-03-23T18:17:11.386Z,66.97
2019-03-23T18:19:41.117Z,67.07
2019-03-23T18:22:10.843Z,67.39
2019-03-23T18:24:40.582Z,68.31
2019-03-23T18:27:10.279Z,68.10
2019-03-23T18:29:40.125Z,69.14
2019-03-23T18:32:09.947Z,69.50
2019-03-23T18:34:42.053Z,70.09
2019-03-23T18:37:13.498Z,68.71
2019-03-23T18:39:43.228Z,68.65
2019-03-23T18:42:15.694Z,68.93
2019-03-23T18:44:45.504Z,68.86
2019-03-23T18:47:17.898Z,69.18
2019-03-23T18:49:47.650Z,69.32
2019-03-23T18:52:17.432Z,69.44
2019-03-23T18:54:47.175Z,68.67
2019-03-23T18:57:16.922Z,69.02
2019-03-23T18:59:46.685Z,69.51
2019-03-23T19:02:19.597Z,69.89
2019-03-23T19:04:49.795Z,69.99
2019-03-23T19:07:19.502Z,71.33
2019-03-23T19:09:49.289Z,71.15
2019-03-23T19:12:19.073Z,71.81
2019-03-23T19:14:49.047Z,72.07
2019-03-23T19:17:18.996Z,72.42
2019-03-23T19:19:48.845Z,72.52
2019-03-23T19:22:18.608Z,73.36
2019-03-23T19:24:48.579Z,73.99
2019-03-23T19:27:18.410Z,74.60
2019-03-23T19:29:48.866Z,75.17
2019-03-23T19:32:18.740Z,75.71
2019-03-23T19:34:48.528Z,75.75
2019-03-23T19:37:18.521Z,76.71
2019-03-23T19:39:48.569Z,77.08
2019-03-23T19:42:18.419Z,77.64
2019-03-23T19:44:50.439Z,78.42
2019-03-23T19:47:21.467Z,78.39
2019-03-23T19:49:51.260Z,78.53
2019-03-23T19:52:22.529Z,79.39
2019-03-23T19:54:57.406Z,79.13
2019-03-23T19:57:28.142Z,79.58
2019-03-23T19:59:58.054Z,79.88
2019-03-23T20:02:27.999Z,79.97
2019-03-23T20:05:01.215Z,80.37
2019-03-23T20:07:33.244Z,80.44
2019-03-23T20:10:06.726Z,80.47
2019-03-23T20:12:36.532Z,80.80
2019-03-23T20:15:09.972Z,80.69
2019-03-23T20:17:39.738Z,80.52
2019-03-23T20:20:10.638Z,81.38
2019-03-23T20:22:40.411Z,82.00
2019-03-23T20:25:10.680Z,81.87
2019-03-23T20:27:40.525Z,82.10
2019-03-23T20:30:12.506Z,82.04
2019-03-23T20:32:42.781Z,82.59
2019-03-23T20:35:12.653Z,82.74
2019-03-23T20:37:42.477Z,82.35
2019-03-23T20:40:13.464Z,82.75
2019-03-23T20:42:43.939Z,83.18
2019-03-23T20:45:16.848Z,83.04
2019-03-23T20:47:47.049Z,82.97
2019-03-23T20:50:16.936Z,83.55
2019-03-23T20:52:47.518Z,83.21
2019-03-23T20:55:31.564Z,83.40
2019-03-23T20:58:03.870Z,83.57
2019-03-23T21:00:33.694Z,83.63
2019-03-23T21:03:03.836Z,83.91
2019-03-23T21:05:35.180Z,84.25
2019-03-23T21:08:05.093Z,84.33
2019-03-23T21:10:36.128Z,84.36
2019-03-23T21:13:07.039Z,84.31
2019-03-23T21:15:36.990Z,85.10
2019-03-23T21:18:08.186Z,84.94
2019-03-23T21:20:38.017Z,85.52
2019-03-23T21:23:07.765Z,85.75
2019-03-23T21:25:38.301Z,85.51
2019-03-23T21:28:08.112Z,85.76
2019-03-23T21:30:37.982Z,85.64
2019-03-23T21:33:07.923Z,86.06
2019-03-23T21:35:37.774Z,86.05
2019-03-23T21:38:07.520Z,86.29
2019-03-23T21:40:37.251Z,86.43
2019-03-23T21:43:07.153Z,87.18
2019-03-23T21:45:36.863Z,86.66
2019-03-23T21:48:06.653Z,86.96
2019-03-23T21:50:46.780Z,87.15
2019-03-23T21:53:07.843Z,86.94
2019-03-23T21:55:37.566Z,87.05
2019-03-23T21:58:07.329Z,87.20
2019-03-23T22:00:37.186Z,87.26
2019-03-23T22:03:06.937Z,87.41
2019-03-23T22:05:36.659Z,87.28
2019-03-23T22:08:06.440Z,87.31
2019-03-23T22:10:36.242Z,87.85
2019-03-23T22:13:06.079Z,88.00
2019-03-23T22:15:35.806Z,87.78
2019-03-23T22:18:05.599Z,88.10
2019-03-23T22:20:35.349Z,88.21
2019-03-23T22:23:05.185Z,88.01
2019-03-23T22:25:34.897Z,87.79
2019-03-23T22:28:04.798Z,88.06
2019-03-23T22:30:34.614Z,88.55
2019-03-23T22:33:04.391Z,88.39
2019-03-23T22:35:34.207Z,88.29
2019-03-23T22:38:03.994Z,88.84
2019-03-23T22:40:33.754Z,88.75
2019-03-23T22:43:03.466Z,88.76
2019-03-23T22:45:33.199Z,88.92
2019-03-23T22:48:03.083Z,88.67
2019-03-23T22:50:33.001Z,88.73
2019-03-23T22:53:02.698Z,89.07
2019-03-23T22:55:32.529Z,88.92
2019-03-23T22:58:02.287Z,89.01
2019-03-23T23:00:33.828Z,88.94
2019-03-23T23:03:03.740Z,89.52
2019-03-23T23:05:33.537Z,89.45
2019-03-23T23:08:03.301Z,89.54
2019-03-23T23:10:33.021Z,89.69
2019-03-23T23:13:02.752Z,89.63
2019-03-23T23:15:32.552Z,89.53
2019-03-23T23:18:02.288Z,89.61
2019-03-23T23:20:32.144Z,89.67
2019-03-23T23:23:01.916Z,89.45
2019-03-23T23:25:31.652Z,89.41
2019-03-23T23:28:01.383Z,89.68
2019-03-23T23:30:31.120Z,89.61
2019-03-23T23:33:00.853Z,89.48
2019-03-23T23:35:30.678Z,89.43
2019-03-23T23:38:00.508Z,89.50
2019-03-23T23:40:30.266Z,89.05
2019-03-23T23:43:00.002Z,89.41
2019-03-23T23:45:29.825Z,89.37
2019-03-23T23:47:59.615Z,90.05
2019-03-23T23:50:29.341Z,90.02
2019-03-23T23:52:59.386Z,90.04
2019-03-23T23:55:31.829Z,90.04
2019-03-23T23:58:01.555Z,89.91
